Greenway, New York
Current Conditions -  °F | °C
As of 4:53 AM on Wednesday 22 Oct 2014 (Local Time) from KRME Reporting Station
Overcast Overcast  
Wind Chill: 47°   Ceiling: 4900
Heat Index: 47°   Visibility: 10mi
Dew Point: 43°   Wind: 3mph
Humidity: 86%   Direction: 350°N
Pressure: 30.06"   Gusts: NA
Location:  43.2466°N, 75.4624°W
Report Text: KRME 220853Z AUTO 35003KT 10SM OVC049 08/06 A3006 RMK AO2 SLP179 T00830061 53007
Loading
Personal Weather Stations






























Interactive Weather Map New forecast layout! Learn more

10-Day Weather Forecast

Advertisements
Track Severe Weather on mobile